createdAt,value
2022-11-15T00:00:29.254Z,17.53
2022-11-15T00:03:36.919Z,15.17
2022-11-15T00:06:43.282Z,11.17
2022-11-15T00:09:50.084Z,8.23
2022-11-15T00:12:56.381Z,10.27
2022-11-15T00:16:04.013Z,12.80
2022-11-15T00:19:12.018Z,10.57
2022-11-15T00:22:18.398Z,13.53
2022-11-15T00:25:24.738Z,13.53
2022-11-15T00:28:31.756Z,12.40
2022-11-15T00:31:49.720Z,11.20
2022-11-15T00:34:57.114Z,14.07
2022-11-15T00:38:03.667Z,10.40
2022-11-15T00:41:10.412Z,11.07
2022-11-15T00:44:16.696Z,7.80
2022-11-15T00:47:23.188Z,11.23
2022-11-15T00:50:31.017Z,10.27
2022-11-15T00:53:37.381Z,11.33
2022-11-15T00:56:43.791Z,11.07
2022-11-15T00:59:50.319Z,13.27
2022-11-15T01:02:56.798Z,13.77
2022-11-15T01:06:05.612Z,17.03
2022-11-15T01:09:12.047Z,18.97
2022-11-15T01:12:18.362Z,8.87
2022-11-15T01:15:24.802Z,11.83
2022-11-15T01:18:30.973Z,16.07
2022-11-15T01:21:38.669Z,13.83
2022-11-15T01:24:45.027Z,13.17
2022-11-15T01:27:51.258Z,17.43
2022-11-15T01:31:00.471Z,15.33
2022-11-15T01:34:06.525Z,18.17
2022-11-15T01:37:14.397Z,14.97
2022-11-15T01:40:20.677Z,10.43
2022-11-15T01:43:29.643Z,17.60
2022-11-15T01:46:37.986Z,15.23
2022-11-15T01:49:52.169Z,14.27
2022-11-15T01:52:59.661Z,22.07
2022-11-15T01:56:08.905Z,18.37
2022-11-15T01:59:15.671Z,15.67
2022-11-15T02:02:22.432Z,12.20
2022-11-15T02:05:28.901Z,12.73
2022-11-15T02:08:36.552Z,13.30
2022-11-15T02:11:43.968Z,16.27
2022-11-15T02:14:53.918Z,14.13
2022-11-15T02:18:13.782Z,16.77
2022-11-15T02:21:29.153Z,11.10
2022-11-15T02:24:57.437Z,10.63
2022-11-15T02:28:30.549Z,15.27
2022-11-15T02:31:47.714Z,13.47
2022-11-15T02:35:04.035Z,15.37
2022-11-15T02:38:19.408Z,18.30
2022-11-15T02:41:32.130Z,13.80
2022-11-15T02:44:44.774Z,11.83
2022-11-15T02:47:56.520Z,8.37
2022-11-15T02:51:03.885Z,10.83
2022-11-15T02:54:14.587Z,13.80
2022-11-15T02:57:24.724Z,10.93
2022-11-15T03:00:38.888Z,12.73
2022-11-15T03:03:59.664Z,13.93
2022-11-15T03:07:14.020Z,11.57
2022-11-15T03:10:27.466Z,14.43
2022-11-15T03:13:40.103Z,17.03
2022-11-15T03:16:51.523Z,16.70
2022-11-15T03:20:02.671Z,28.40
2022-11-15T03:23:12.384Z,22.23
2022-11-15T03:26:23.696Z,21.53
2022-11-15T03:29:35.629Z,20.80
2022-11-15T03:32:46.870Z,17.43
2022-11-15T03:35:56.387Z,17.97
2022-11-15T03:39:07.330Z,14.83
2022-11-15T03:42:22.775Z,13.03
2022-11-15T03:45:34.430Z,19.73
2022-11-15T03:48:47.166Z,19.10
2022-11-15T03:51:55.406Z,15.47
2022-11-15T03:55:05.557Z,13.30
2022-11-15T03:58:12.053Z,18.87
2022-11-15T04:01:18.531Z,21.00
2022-11-15T04:04:25.231Z,16.77
2022-11-15T04:07:32.788Z,42.30
2022-11-15T04:10:39.673Z,19.70
2022-11-15T04:13:45.868Z,14.70
2022-11-15T04:16:51.832Z,8.73
2022-11-15T04:20:15.977Z,12.47
2022-11-15T04:23:42.872Z,15.63
2022-11-15T04:26:49.049Z,25.97
2022-11-15T04:29:55.791Z,16.17
2022-11-15T04:33:02.470Z,12.70
2022-11-15T04:36:27.173Z,19.17
2022-11-15T04:39:34.685Z,29.63
2022-11-15T04:42:43.096Z,45.83
2022-11-15T04:45:49.277Z,28.20
2022-11-15T04:48:58.862Z,52.30
2022-11-15T04:52:06.062Z,46.83
2022-11-15T04:55:13.805Z,22.80
2022-11-15T04:58:20.356Z,34.97
2022-11-15T05:01:26.858Z,22.63
2022-11-15T05:04:32.417Z,20.43
2022-11-15T05:07:38.974Z,24.80
2022-11-15T05:10:47.084Z,21.53
2022-11-15T05:13:53.465Z,16.20
2022-11-15T05:16:59.906Z,23.93
2022-11-15T05:20:07.084Z,19.00
2022-11-15T05:23:13.341Z,14.57
2022-11-15T05:26:21.373Z,15.67
2022-11-15T05:29:27.640Z,11.77
2022-11-15T05:32:33.949Z,22.67
2022-11-15T05:35:44.090Z,21.17
2022-11-15T05:38:51.198Z,19.73
2022-11-15T05:42:03.958Z,25.83
2022-11-15T05:45:11.671Z,31.53
2022-11-15T05:48:18.617Z,31.50
2022-11-15T05:51:25.869Z,53.23
2022-11-15T05:54:34.029Z,38.33
2022-11-15T05:57:41.686Z,43.70
2022-11-15T06:00:48.953Z,25.63
2022-11-15T06:03:55.310Z,31.67
2022-11-15T06:07:01.960Z,31.60
2022-11-15T06:10:09.803Z,24.10
2022-11-15T06:13:17.646Z,17.67
2022-11-15T06:16:24.313Z,16.97
2022-11-15T06:19:33.869Z,26.97
2022-11-15T06:22:40.406Z,37.90
2022-11-15T06:25:46.766Z,19.40
2022-11-15T06:28:54.292Z,20.60
2022-11-15T06:32:00.406Z,24.27
2022-11-15T06:35:07.687Z,32.60
2022-11-15T06:38:14.107Z,34.73
2022-11-15T06:41:22.075Z,39.67
2022-11-15T06:44:29.563Z,34.63
2022-11-15T06:47:35.802Z,40.27
2022-11-15T06:50:42.652Z,36.43
2022-11-15T06:53:48.614Z,36.03
2022-11-15T06:56:54.797Z,28.23
2022-11-15T07:00:02.676Z,26.30
2022-11-15T07:03:09.256Z,28.87
2022-11-15T07:06:15.669Z,25.57
2022-11-15T07:09:21.885Z,35.07
2022-11-15T07:12:28.066Z,29.90
2022-11-15T07:15:35.873Z,32.57
2022-11-15T07:18:42.996Z,30.17
2022-11-15T07:21:49.482Z,36.57
2022-11-15T07:24:55.653Z,33.80
2022-11-15T07:28:02.933Z,29.03
2022-11-15T07:31:11.225Z,26.37
2022-11-15T07:34:17.972Z,30.33
2022-11-15T07:37:24.500Z,39.00
2022-11-15T07:40:32.761Z,37.93
2022-11-15T07:43:38.922Z,33.17
2022-11-15T07:46:46.667Z,28.77
2022-11-15T07:49:53.221Z,32.63
2022-11-15T07:53:01.539Z,34.50
2022-11-15T07:56:09.048Z,33.30
2022-11-15T07:59:15.385Z,31.07
2022-11-15T08:02:27.629Z,33.00
2022-11-15T08:05:37.384Z,18.50
2022-11-15T08:08:44.005Z,20.97
2022-11-15T08:11:50.277Z,34.47
2022-11-15T08:14:56.621Z,37.43
2022-11-15T08:18:06.731Z,17.87
2022-11-15T08:21:18.442Z,24.97
2022-11-15T08:24:25.038Z,15.07
2022-11-15T08:27:31.303Z,23.27
2022-11-15T08:30:42.685Z,24.23
2022-11-15T08:33:50.225Z,16.63
2022-11-15T08:36:56.516Z,15.87
2022-11-15T08:40:03.113Z,18.93
2022-11-15T08:43:09.945Z,16.90
2022-11-15T08:46:16.546Z,13.00
2022-11-15T08:49:24.501Z,14.47
2022-11-15T08:52:30.484Z,6.80
2022-11-15T08:55:39.637Z,11.80
2022-11-15T08:58:45.800Z,17.30
2022-11-15T09:01:52.014Z,14.93
2022-11-15T09:04:59.584Z,12.60
2022-11-15T09:08:19.183Z,11.23
2022-11-15T09:11:33.420Z,13.80
2022-11-15T09:14:40.117Z,8.20
2022-11-15T09:17:46.501Z,12.80
2022-11-15T09:20:57.727Z,11.03
2022-11-15T09:24:05.389Z,12.00
2022-11-15T09:27:11.594Z,13.57
2022-11-15T09:30:18.706Z,9.47
2022-11-15T09:33:24.818Z,8.97
2022-11-15T09:36:32.395Z,9.20
2022-11-15T09:39:38.769Z,14.73
2022-11-15T09:43:00.861Z,12.70
2022-11-15T09:46:16.384Z,12.03
2022-11-15T09:49:24.353Z,13.70
2022-11-15T09:52:31.778Z,12.53
2022-11-15T09:55:49.880Z,16.20
2022-11-15T09:59:08.338Z,14.83
2022-11-15T10:02:26.198Z,12.97
2022-11-15T10:05:34.599Z,11.70
2022-11-15T10:08:52.920Z,7.37
2022-11-15T10:11:59.240Z,7.43
2022-11-15T10:15:12.428Z,5.83
2022-11-15T10:18:21.819Z,7.77
2022-11-15T10:21:40.897Z,5.33
2022-11-15T10:24:49.159Z,7.50
2022-11-15T10:27:58.866Z,6.27
2022-11-15T10:31:06.415Z,5.53
2022-11-15T10:34:16.078Z,4.93
2022-11-15T10:37:31.510Z,5.47
2022-11-15T10:40:40.083Z,6.03
2022-11-15T10:43:47.275Z,7.07
2022-11-15T10:47:28.325Z,5.13
2022-11-15T10:50:34.923Z,6.13
2022-11-15T10:53:47.667Z,5.67
2022-11-15T10:56:58.304Z,6.13
2022-11-15T11:00:08.535Z,5.77
2022-11-15T11:03:30.902Z,9.33
2022-11-15T11:06:49.579Z,8.07
2022-11-15T11:10:01.723Z,4.63
2022-11-15T11:13:25.699Z,5.97
2022-11-15T11:16:47.258Z,5.33
2022-11-15T11:20:05.784Z,4.93
2022-11-15T11:23:37.854Z,5.23
2022-11-15T11:26:51.704Z,51.30
2022-11-15T11:30:11.513Z,69.93
2022-11-15T11:33:21.244Z,14.60
2022-11-15T11:36:33.670Z,9.77
2022-11-15T11:39:51.376Z,6.23
2022-11-15T11:43:06.822Z,6.47
2022-11-15T11:46:31.741Z,6.27
2022-11-15T11:49:45.893Z,5.87
2022-11-15T11:53:03.655Z,4.20
2022-11-15T11:56:21.836Z,5.33
2022-11-15T11:59:38.090Z,10.53
2022-11-15T12:02:50.164Z,4.73
2022-11-15T12:05:59.890Z,9.40
2022-11-15T12:09:16.789Z,13.83
2022-11-15T12:12:30.016Z,7.97
2022-11-15T12:15:56.937Z,5.67
2022-11-15T12:19:06.830Z,8.27
2022-11-15T12:22:21.936Z,9.97
2022-11-15T12:25:33.540Z,16.73
2022-11-15T12:28:58.667Z,8.63
2022-11-15T12:32:25.376Z,12.23
2022-11-15T12:35:37.177Z,6.60
2022-11-15T12:38:57.156Z,9.87
2022-11-15T12:42:36.492Z,9.17
2022-11-15T12:45:44.294Z,9.07
2022-11-15T12:48:58.748Z,8.13
2022-11-15T12:52:11.768Z,8.70
2022-11-15T12:55:34.065Z,6.27
2022-11-15T12:58:46.943Z,9.73
2022-11-15T13:02:03.562Z,8.20
2022-11-15T13:05:43.201Z,5.83
2022-11-15T13:08:52.565Z,7.27
2022-11-15T13:11:59.964Z,5.40
2022-11-15T13:15:43.091Z,9.77
2022-11-15T13:18:56.219Z,7.60
2022-11-15T13:22:23.267Z,4.83
2022-11-15T13:26:12.248Z,4.50
2022-11-15T13:29:22.041Z,8.20
2022-11-15T13:32:28.165Z,5.93
2022-11-15T13:35:38.550Z,10.20
2022-11-15T13:38:45.737Z,7.10
2022-11-15T13:41:53.686Z,3.60
2022-11-15T13:45:05.746Z,12.63
2022-11-15T13:48:12.385Z,22.87
2022-11-15T13:51:25.972Z,22.23
2022-11-15T13:54:37.791Z,8.90
2022-11-15T13:57:46.698Z,11.47
2022-11-15T14:01:03.074Z,6.17
2022-11-15T14:04:13.673Z,7.03
2022-11-15T14:07:22.455Z,7.03
2022-11-15T14:10:31.833Z,11.27
2022-11-15T14:13:38.476Z,16.17
2022-11-15T14:16:48.140Z,21.33
2022-11-15T14:19:54.296Z,23.13
2022-11-15T14:23:02.395Z,15.37
2022-11-15T14:26:13.716Z,23.17
2022-11-15T14:29:26.974Z,28.37
2022-11-15T14:32:45.696Z,16.23
2022-11-15T14:35:52.788Z,23.90
2022-11-15T14:38:59.362Z,18.27
2022-11-15T14:42:10.550Z,15.13
2022-11-15T14:45:19.289Z,18.03
2022-11-15T14:48:27.177Z,17.57
2022-11-15T14:51:34.379Z,16.03
2022-11-15T14:54:40.581Z,21.67
2022-11-15T14:58:01.163Z,12.83
2022-11-15T15:01:14.932Z,19.00
2022-11-15T15:04:22.632Z,16.77
2022-11-15T15:07:28.737Z,21.03
2022-11-15T15:10:51.356Z,21.93
2022-11-15T15:13:59.428Z,20.60
2022-11-15T15:17:05.918Z,41.37
2022-11-15T15:20:27.629Z,39.40
2022-11-15T15:23:33.990Z,18.27
2022-11-15T15:26:40.402Z,16.23
2022-11-15T15:29:46.745Z,19.20
2022-11-15T15:32:53.332Z,24.37
2022-11-15T15:36:12.688Z,25.80
2022-11-15T15:39:18.928Z,21.23
2022-11-15T15:42:25.663Z,16.80
2022-11-15T15:45:40.557Z,16.00
2022-11-15T15:48:47.700Z,15.77
2022-11-15T15:51:55.246Z,15.57
2022-11-15T15:55:01.855Z,12.60
2022-11-15T15:58:09.341Z,9.47
2022-11-15T16:01:15.680Z,20.73
2022-11-15T16:04:22.079Z,42.07
2022-11-15T16:07:30.493Z,41.33
2022-11-15T16:10:37.888Z,44.20
2022-11-15T16:13:44.243Z,22.03
2022-11-15T16:16:50.450Z,18.30
2022-11-15T16:19:56.721Z,26.80
2022-11-15T16:23:08.931Z,25.13
2022-11-15T16:26:22.426Z,25.33
2022-11-15T16:29:29.305Z,36.90
2022-11-15T16:32:35.793Z,34.43
2022-11-15T16:35:42.287Z,40.43
2022-11-15T16:38:50.437Z,67.13
2022-11-15T16:41:56.812Z,74.73
2022-11-15T16:45:03.069Z,74.33
2022-11-15T16:48:35.202Z,88.30
2022-11-15T16:51:42.751Z,89.37
2022-11-15T16:54:50.428Z,88.17
2022-11-15T16:57:58.131Z,92.53
2022-11-15T17:01:05.810Z,97.30
2022-11-15T17:04:13.631Z,98.23
2022-11-15T17:07:19.711Z,91.27
2022-11-15T17:10:28.386Z,94.87
2022-11-15T17:13:34.761Z,147.00
2022-11-15T17:16:42.657Z,170.20
2022-11-15T17:19:48.562Z,150.97
2022-11-15T17:22:54.458Z,152.43
2022-11-15T17:26:17.867Z,165.60
2022-11-15T17:29:30.604Z,128.53
2022-11-15T17:32:38.243Z,146.80
2022-11-15T17:35:44.381Z,167.30
2022-11-15T17:38:58.011Z,145.07
2022-11-15T17:42:07.076Z,115.17
2022-11-15T17:45:14.484Z,112.37
2022-11-15T17:48:20.706Z,125.40
2022-11-15T17:51:27.829Z,143.53
2022-11-15T17:54:34.436Z,164.20
2022-11-15T17:57:42.274Z,207.43
2022-11-15T18:00:49.827Z,115.00
2022-11-15T18:03:57.165Z,64.63
2022-11-15T18:07:03.872Z,86.73
2022-11-15T18:10:10.694Z,94.67
2022-11-15T18:13:18.717Z,81.33
2022-11-15T18:16:31.144Z,90.20
2022-11-15T18:19:37.853Z,134.97
2022-11-15T18:22:43.950Z,124.67
2022-11-15T18:25:53.053Z,80.23
2022-11-15T18:29:05.737Z,59.27
2022-11-15T18:32:12.679Z,84.23
2022-11-15T18:35:19.053Z,100.07
2022-11-15T18:38:30.596Z,106.33
2022-11-15T18:41:37.177Z,101.83
2022-11-15T18:44:44.558Z,83.90
2022-11-15T18:48:04.517Z,66.50
2022-11-15T18:51:11.810Z,46.43
2022-11-15T18:54:19.088Z,48.07
2022-11-15T18:57:26.637Z,50.03
2022-11-15T19:00:34.203Z,54.90
2022-11-15T19:03:42.777Z,39.90
2022-11-15T19:06:51.508Z,43.63
2022-11-15T19:09:57.928Z,55.63
2022-11-15T19:13:04.181Z,53.93
2022-11-15T19:16:14.102Z,66.47
2022-11-15T19:19:21.807Z,76.47
2022-11-15T19:22:27.776Z,78.03
2022-11-15T19:25:33.801Z,56.30
2022-11-15T19:28:40.406Z,62.13
2022-11-15T19:31:48.895Z,81.67
2022-11-15T19:34:55.083Z,109.23
2022-11-15T19:38:01.449Z,89.33
2022-11-15T19:41:09.797Z,62.23
2022-11-15T19:44:16.619Z,77.77
2022-11-15T19:47:24.444Z,70.97
2022-11-15T19:50:30.757Z,61.77
2022-11-15T19:53:38.185Z,38.83
2022-11-15T19:56:44.774Z,32.20
2022-11-15T19:59:51.033Z,45.70
2022-11-15T20:02:58.835Z,35.10
2022-11-15T20:06:06.908Z,34.50
2022-11-15T20:09:15.040Z,62.50
2022-11-15T20:12:21.600Z,56.33
2022-11-15T20:15:28.289Z,69.53
2022-11-15T20:18:36.504Z,70.97
2022-11-15T20:21:43.751Z,83.30
2022-11-15T20:24:50.036Z,80.53
2022-11-15T20:27:56.231Z,77.90
2022-11-15T20:31:03.012Z,79.70
2022-11-15T20:34:11.074Z,95.50
2022-11-15T20:37:17.505Z,82.93
2022-11-15T20:40:24.134Z,51.80
2022-11-15T20:43:30.362Z,56.17
2022-11-15T20:46:36.632Z,53.47
2022-11-15T20:49:44.082Z,52.90
2022-11-15T20:52:50.396Z,64.53
2022-11-15T20:55:56.255Z,29.63
2022-11-15T20:59:02.457Z,23.93
2022-11-15T21:02:10.606Z,26.90
2022-11-15T21:05:18.474Z,30.23
2022-11-15T21:08:24.829Z,37.33
2022-11-15T21:11:48.858Z,59.63
2022-11-15T21:14:54.936Z,29.17
2022-11-15T21:18:01.242Z,32.93
2022-11-15T21:21:09.065Z,48.20
2022-11-15T21:24:15.139Z,34.97
2022-11-15T21:27:21.810Z,56.67
2022-11-15T21:30:28.237Z,47.00
2022-11-15T21:33:36.154Z,76.47
2022-11-15T21:36:44.091Z,105.80
2022-11-15T21:39:50.793Z,240.87
2022-11-15T21:42:57.430Z,191.03
2022-11-15T21:46:05.535Z,139.70
2022-11-15T21:49:11.803Z,94.30
2022-11-15T21:52:19.643Z,74.20
2022-11-15T21:55:25.875Z,42.03
2022-11-15T21:58:32.760Z,39.03
2022-11-15T22:01:56.928Z,51.03
2022-11-15T22:05:02.970Z,55.43
2022-11-15T22:08:10.736Z,45.93
2022-11-15T22:11:17.205Z,49.33
2022-11-15T22:14:23.401Z,35.80
2022-11-15T22:17:49.601Z,35.03
2022-11-15T22:20:57.052Z,39.83
2022-11-15T22:24:05.259Z,48.33
2022-11-15T22:27:12.044Z,42.47
2022-11-15T22:30:19.544Z,29.40
2022-11-15T22:33:28.206Z,39.83
2022-11-15T22:36:52.368Z,37.20
2022-11-15T22:40:02.874Z,52.93
2022-11-15T22:43:09.533Z,74.57
2022-11-15T22:46:16.273Z,52.53
2022-11-15T22:49:22.715Z,57.20
2022-11-15T22:52:29.365Z,57.20
2022-11-15T22:55:38.903Z,31.57
2022-11-15T22:58:45.467Z,33.37
2022-11-15T23:01:52.053Z,34.77
2022-11-15T23:04:58.534Z,30.83
2022-11-15T23:08:05.169Z,36.93
2022-11-15T23:11:30.814Z,32.13
2022-11-15T23:14:37.109Z,35.00
2022-11-15T23:17:43.741Z,23.93
2022-11-15T23:20:50.279Z,35.33
2022-11-15T23:23:55.569Z,39.23
2022-11-15T23:27:07.260Z,31.90
2022-11-15T23:30:43.466Z,47.53
2022-11-15T23:33:58.665Z,48.60
2022-11-15T23:37:06.844Z,37.63
2022-11-15T23:40:14.224Z,42.57
2022-11-15T23:43:22.811Z,28.13
2022-11-15T23:46:29.265Z,32.13
2022-11-15T23:49:35.558Z,36.27
2022-11-15T23:52:41.727Z,25.63
2022-11-15T23:55:55.977Z,27.07
2022-11-15T23:59:03.883Z,27.47
